Sbi Flamenco — V7JA5 — position and weather

sailwx.info

Track history (hours):
 
Tides and Currents Weather Stations Pressure Air Temp Water Temp Dewpoint Dewpoint Depression Visibility Wind Speed Wind Dir Waves Ship Positions

Sbi Flamenco

Last reported at 2018-Mar-23 22:29 UTC. Time now 2018-Apr-19 11:47 UTC.
Position N 49°43' W 004°08'.
Warning: this ship's position is 26 days out of date.

Length 229 m; draft 7.8 m.

Type: Cargo ship. MMSI: 538006022.

Date/timePositionNaut miles runAvg speedWind from/ knotsBaromVisibWave heightAir tempDewpointWater temp
2018-Mar-23 22:29N 49°43' W 004°08'12 9.7
2018-Mar-23 21:15N 49°47' W 003°50'2 9.8
2018-Mar-23 21:00N 49°47' W 003°47'5 9.7
2018-Mar-23 20:30N 49°48' W 003°39'710.4
2018-Mar-23 19:49N 49°49' W 003°28'310.8
2018-Mar-23 19:30N 49°49' W 003°23'611.3
2018-Mar-23 19:00N 49°51' W 003°15'712.3
2018-Mar-23 18:28N 49°55' W 003°06'612.7
2018-Mar-23 18:00N 49°57' W 002°58'713.2
2018-Mar-23 17:30N 49°60' W 002°48'713.4
2018-Mar-23 16:59N 50°02' W 002°38'813.2
2018-Mar-23 16:21N 50°04' W 002°25'1312.5
2018-Mar-23 15:20N 50°08' W 002°06'411.6
2018-Mar-23 15:00N 50°09' W 002°01'510.7
2018-Mar-23 14:30N 50°10' W 001°53'5 9.6
2018-Mar-23 14:01N 50°11' W 001°45'5 9.1
2018-Mar-23 13:30N 50°13' W 001°38'4 8.5
2018-Mar-23 13:00N 50°14' W 001°32'4 7.7
2018-Mar-23 12:30N 50°15' W 001°26'4 7.3
2018-Mar-23 12:00N 50°16' W 001°21'4 7.1
2018-Mar-23 11:31N 50°16' W 001°15'9 7.7
2018-Mar-23 10:18N 50°19' W 001°01'3 8.9
2018-Mar-23 10:00N 50°20' W 000°57'5 9.6
2018-Mar-23 09:30N 50°21' W 000°50'810.5
2018-Mar-23 08:43N 50°23' W 000°38'2111.3
2018-Mar-23 06:52N 50°29' W 000°06'411.7
2018-Mar-23 06:30N 50°30' E 000°00'611.6
2018-Mar-23 06:00N 50°32' E 000°09'611.5
2018-Mar-23 05:30N 50°33' E 000°18'611.4
2018-Mar-23 05:00N 50°35' E 000°26'611.1
2018-Mar-23 04:30N 50°36' E 000°35'510.8
2018-Mar-23 04:00N 50°39' E 000°42'510.6
2018-Mar-23 03:30N 50°42' E 000°49'510.2
2018-Mar-23 03:00N 50°45' E 000°56'510.0
2018-Mar-23 02:30N 50°48' E 001°03'5 9.8
2018-Mar-23 02:00N 50°50' E 001°09'6 9.8
2018-Mar-23 01:23N 50°54' E 001°17'410.6
2018-Mar-23 01:00N 50°57' E 001°21'611.6
2018-Mar-23 00:30N 51°02' E 001°27'713.2
2018-Mar-23 00:00N 51°06' E 001°34'714.2
2018-Mar-22 23:30N 51°11' E 001°42'714.5
2018-Mar-22 23:00N 51°17' E 001°49'714.1
2018-Mar-22 22:31N 51°24' E 001°53'713.1
2018-Mar-22 22:00N 51°29' E 001°60'612.7
2018-Mar-22 21:30N 51°34' E 002°07'612.2
2018-Mar-22 21:00N 51°38' E 002°13'611.9
2018-Mar-22 20:30N 51°42' E 002°20'611.5
2018-Mar-22 19:57N 51°47' E 002°27'11111.7
2018-Mar-22 10:24N 53°12' E 004°26'2010.9
2018-Mar-22 08:35N 53°29' E 004°42'110.3
2018-Mar-22 08:27N 53°30' E 004°44'710.2
2018-Mar-22 07:47N 53°32' E 004°55'310.2
2018-Mar-22 07:27N 53°34' E 005°00'510.5
2018-Mar-22 06:56N 53°35' E 005°09'611.4
2018-Mar-22 06:22N 53°37' E 005°19'8610.8
2018-Mar-21 22:25N 54°01' E 007°39'5 9.6
2018-Mar-21 21:56N 54°01' E 007°47'510.3
2018-Mar-21 21:29N 54°01' E 007°55'610.7
2018-Mar-21 20:57N 54°01' E 008°05'4 9.7
2018-Mar-21 20:30N 54°01' E 008°12'511.0
2018-Mar-21 20:00N 53°60' E 008°21'815.4
2018-Mar-21 19:30N 53°58' E 008°34'815.6
2018-Mar-21 19:00N 53°52' E 008°43'612.0
2018-Mar-21 18:31N 53°50' E 008°53'714.6
2018-Mar-21 18:00N 53°52' E 009°05'510.2
2018-Mar-21 17:30N 53°53' E 009°13'611.7
2018-Mar-21 17:00N 53°50' E 009°22'611.1
2018-Mar-21 16:30N 53°45' E 009°25'5 9.8
2018-Mar-21 16:00N 53°41' E 009°30'4 8.9
2018-Mar-21 15:30N 53°37' E 009°34'5 9.7
2018-Mar-21 15:00N 53°34' E 009°41'4 8.1
2018-Mar-21 14:30N 53°33' E 009°47'3 6.9
2018-Mar-21 14:00N 53°33' E 009°53'2 4.6
2018-Mar-21 13:30N 53°32' E 009°56'1 1.1
2018-Mar-21 12:59N 53°31' E 009°56'0 0.0
2018-Mar-21 12:30N 53°31' E 009°56'0 0.0
2018-Mar-21 11:59N 53°31' E 009°56'0 0.0
2018-Mar-21 11:30N 53°31' E 009°56'0 0.0
2018-Mar-21 10:59N 53°31' E 009°56'0 0.0
2018-Mar-21 10:29N 53°31' E 009°56'0 0.0
2018-Mar-21 09:59N 53°31' E 009°56'0 0.0
2018-Mar-21 09:29N 53°31' E 009°56'0 0.0
2018-Mar-21 08:59N 53°31' E 009°56'0 0.0
2018-Mar-21 08:29N 53°31' E 009°56'0 0.0
2018-Mar-21 07:59N 53°31' E 009°56'0 0.0
2018-Mar-21 07:30N 53°31' E 009°56'0 0.0
2018-Mar-21 07:00N 53°31' E 009°56'0 0.0
2018-Mar-21 06:29N 53°31' E 009°56'0 0.0
2018-Mar-21 05:59N 53°31' E 009°56'0 0.0
2018-Mar-21 05:30N 53°31' E 009°56'0 0.0
2018-Mar-21 04:59N 53°31' E 009°56'0 0.0
2018-Mar-21 04:30N 53°31' E 009°56'0 0.0
2018-Mar-21 03:59N 53°31' E 009°56'0 0.0
2018-Mar-21 03:29N 53°31' E 009°56'0 0.0
2018-Mar-21 02:59N 53°31' E 009°56'0 0.0
2018-Mar-21 02:29N 53°31' E 009°56'0 0.0
2018-Mar-21 01:59N 53°31' E 009°56'0 0.0
2018-Mar-21 01:29N 53°31' E 009°56'0 0.0
2018-Mar-21 01:00N 53°31' E 009°56'0 0.0
2018-Mar-21 00:29N 53°31' E 009°56'0 0.0
2018-Mar-20 23:59N 53°31' E 009°56'0 0.0
2018-Mar-20 23:29N 53°31' E 009°56'0 0.0
2018-Mar-20 22:59N 53°31' E 009°56'0 0.0
2018-Mar-20 22:29N 53°31' E 009°56'0 0.0
2018-Mar-20 21:59N 53°31' E 009°56'0 0.0
2018-Mar-20 21:29N 53°31' E 009°56'0 0.0
2018-Mar-20 20:59N 53°31' E 009°56'0 0.0
2018-Mar-20 20:29N 53°31' E 009°56'0 0.0
2018-Mar-20 19:59N 53°31' E 009°56'0 0.0
2018-Mar-20 19:29N 53°31' E 009°56'0 0.0
2018-Mar-20 18:59N 53°31' E 009°56'0 0.0
2018-Mar-20 18:29N 53°31' E 009°56'0 0.0
2018-Mar-20 17:59N 53°31' E 009°56'0 0.0
2018-Mar-20 17:29N 53°31' E 009°56'0 0.0
2018-Mar-20 16:59N 53°31' E 009°56'0 0.0
2018-Mar-20 16:29N 53°31' E 009°56'0 0.0
2018-Mar-20 15:59N 53°31' E 009°56'0 0.0
2018-Mar-20 15:29N 53°31' E 009°56'0 0.0
2018-Mar-20 14:59N 53°31' E 009°56'0 0.0
2018-Mar-20 14:29N 53°31' E 009°56'0 0.0
2018-Mar-20 13:59N 53°31' E 009°56'0 0.0
2018-Mar-20 13:29N 53°31' E 009°56'0 0.0
2018-Mar-20 12:59N 53°31' E 009°56'0 0.0
2018-Mar-20 12:29N 53°31' E 009°56'0 0.0
2018-Mar-20 11:59N 53°31' E 009°56'0 0.0
2018-Mar-20 11:29N 53°31' E 009°56'0 0.0
2018-Mar-20 10:59N 53°31' E 009°56'0 0.0
2018-Mar-20 10:29N 53°31' E 009°56'0 0.0
2018-Mar-20 09:59N 53°31' E 009°56'0 0.0
2018-Mar-20 09:29N 53°31' E 009°56'0 0.0
2018-Mar-20 08:59N 53°31' E 009°56'0 0.0
2018-Mar-20 08:29N 53°31' E 009°56'0 0.0
2018-Mar-20 07:59N 53°31' E 009°56'0 0.0
2018-Mar-20 07:29N 53°31' E 009°56'0 0.0
2018-Mar-20 06:59N 53°31' E 009°56'0 0.0
2018-Mar-20 06:29N 53°31' E 009°56'0 0.0
2018-Mar-20 05:59N 53°31' E 009°56'0 0.0
2018-Mar-20 05:29N 53°31' E 009°56'0 0.0
2018-Mar-20 04:59N 53°31' E 009°56'0 0.0
2018-Mar-20 04:29N 53°31' E 009°56'0 0.0
2018-Mar-20 03:59N 53°31' E 009°56'0 0.0
2018-Mar-20 03:29N 53°31' E 009°56'0 0.0
2018-Mar-20 02:59N 53°31' E 009°56'0 0.0
2018-Mar-20 02:29N 53°31' E 009°56'0 0.0
2018-Mar-20 01:59N 53°31' E 009°56'0 0.0
2018-Mar-20 01:29N 53°31' E 009°56'0 0.0
2018-Mar-20 00:59N 53°31' E 009°56'0 0.0
2018-Mar-20 00:29N 53°31' E 009°56'0 0.0
2018-Mar-19 23:59N 53°31' E 009°56'0 0.0
2018-Mar-19 23:29N 53°31' E 009°56'0 0.0
2018-Mar-19 22:59N 53°31' E 009°56'0 0.0
2018-Mar-19 22:29N 53°31' E 009°56'0 0.0
2018-Mar-19 21:59N 53°31' E 009°56'0 0.0
2018-Mar-19 21:29N 53°31' E 009°56'0 0.0
2018-Mar-19 20:59N 53°31' E 009°56'0 0.0
2018-Mar-19 20:29N 53°31' E 009°56'0 0.0
2018-Mar-19 19:59N 53°31' E 009°56'0 0.0
2018-Mar-19 19:29N 53°31' E 009°56'0 0.0
2018-Mar-19 18:59N 53°31' E 009°56'0 0.0
2018-Mar-19 18:29N 53°31' E 009°56'0 0.0
2018-Mar-19 17:59N 53°31' E 009°56'0 0.0
2018-Mar-19 17:29N 53°31' E 009°56'0 0.0
2018-Mar-19 16:59N 53°31' E 009°56'0 0.4
2018-Mar-19 16:30N 53°31' E 009°56'2 4.6
2018-Mar-19 16:00N 53°32' E 009°53'4 7.8
2018-Mar-19 15:30N 53°34' E 009°47'510.4
2018-Mar-19 15:00N 53°35' E 009°38'611.3
2018-Mar-19 14:30N 53°39' E 009°31'611.8
2018-Mar-19 14:00N 53°44' E 009°27'612.4
2018-Mar-19 13:30N 53°49' E 009°22'612.9
2018-Mar-19 13:00N 53°53' E 009°13'5 9.7
2018-Mar-19 12:30N 53°52' E 009°04'612.4
2018-Mar-19 12:00N 53°51' E 008°54'4 9.0
2018-Mar-19 11:31N 53°51' E 008°47'5 9.1
2018-Mar-19 11:00N 53°54' E 008°42'712.9
2018-Mar-19 10:29N 53°58' E 008°33'613.1
2018-Mar-19 10:00N 53°59' E 008°22'510.0
2018-Mar-19 09:30N 53°60' E 008°13'8 8.8
2018-Mar-19 08:33N 53°60' E 007°59'1 4.1
2018-Mar-19 08:23N 53°60' E 007°58'1 0.8
2018-Mar-19 07:39N 53°60' E 007°57'0 1.8
2018-Mar-19 07:28N 53°59' E 007°57'4 7.1
2018-Mar-19 06:59N 53°59' E 007°51'94 9.4
2018-Mar-18 20:59N 53°32' E 005°19'4 9.2
2018-Mar-18 20:30N 53°30' E 005°11'5 8.7
2018-Mar-18 19:59N 53°30' E 005°04'5 9.0
2018-Mar-18 19:27N 53°28' E 004°56'5 9.2
2018-Mar-18 18:56N 53°26' E 004°49'19 9.8
2018-Mar-18 16:59N 53°11' E 004°30'510.7
2018-Mar-18 16:31N 53°06' E 004°26'510.8
2018-Mar-18 16:01N 53°01' E 004°22'510.6
2018-Mar-18 15:31N 52°57' E 004°18'510.3
2018-Mar-18 15:01N 52°52' E 004°14'610.1
2018-Mar-18 14:26N 52°47' E 004°09'4 9.6
2018-Mar-18 13:59N 52°44' E 004°05'5 9.2
2018-Mar-18 13:28N 52°40' E 004°00'4 8.7
2018-Mar-18 13:00N 52°37' E 003°55'4 8.6
2018-Mar-18 12:30N 52°34' E 003°50'4 8.2
2018-Mar-18 11:59N 52°31' E 003°46'4 7.9
2018-Mar-18 11:30N 52°28' E 003°42'4 7.5
2018-Mar-18 11:00N 52°25' E 003°38'4 7.0
2018-Mar-18 10:27N 52°23' E 003°33'48 7.9
2018-Mar-18 04:21N 51°48' E 002°37'4 9.8
2018-Mar-18 04:00N 51°46' E 002°33'510.0
2018-Mar-18 03:30N 51°42' E 002°28'510.2
2018-Mar-18 03:00N 51°38' E 002°23'510.1
2018-Mar-18 02:28N 51°34' E 002°18'510.2
2018-Mar-18 01:59N 51°30' E 002°13'510.2
2018-Mar-18 01:31N 51°26' E 002°08'510.1
2018-Mar-18 01:01N 51°23' E 002°02'510.0
2018-Mar-18 00:31N 51°19' E 001°57'510.3
2018-Mar-18 00:00N 51°15' E 001°52'510.1
2018-Mar-17 23:31N 51°11' E 001°46'5 9.9
2018-Mar-17 23:01N 51°07' E 001°42'5 9.4
2018-Mar-17 22:31N 51°03' E 001°38'6 9.0
2018-Mar-17 21:47N 50°58' E 001°32'2 8.5
2018-Mar-17 21:31N 50°56' E 001°30'4 8.0
2018-Mar-17 21:00N 50°52' E 001°27'4 7.8
2018-Mar-17 20:29N 50°48' E 001°25'4 7.6
2018-Mar-17 19:59N 50°45' E 001°23'4 7.7
2018-Mar-17 19:26N 50°41' E 001°19'49 7.9
2018-Mar-17 13:13N 50°21' E 000°09'2 7.6
2018-Mar-17 13:00N 50°20' E 000°07'4 7.8
2018-Mar-17 12:30N 50°19' E 000°01'4 7.8
2018-Mar-17 12:00N 50°18' W 000°05'4 8.4
2018-Mar-17 11:30N 50°17' W 000°11'4 8.9
2018-Mar-17 11:00N 50°16' W 000°18'5 9.5
2018-Mar-17 10:30N 50°15' W 000°25'510.2
2018-Mar-17 10:00N 50°13' W 000°33'1411.5
2018-Mar-17 08:46N 50°10' W 000°54'312.2
2018-Mar-17 08:30N 50°09' W 000°59'612.6
2018-Mar-17 08:00N 50°07' W 001°09'612.8
2018-Mar-17 07:30N 50°05' W 001°18'612.8
2018-Mar-17 07:00N 50°04' W 001°28'612.5
2018-Mar-17 06:31N 50°02' W 001°37'612.2
2018-Mar-17 06:01N 50°00' W 001°46'611.9
2018-Mar-17 05:30N 49°59' W 001°55'611.4
2018-Mar-17 05:00N 49°57' W 002°04'610.8
2018-Mar-17 04:29N 49°55' W 002°12'41 9.1
2018-Mar-17 00:02N 49°42' W 003°12'0 9.1
2018-Mar-17 00:00N 49°42' W 003°12'5 9.3
2018-Mar-16 23:30N 49°40' W 003°18'6410.4
2018-Mar-16 17:20N 49°06' W 004°42'811.9
2018-Mar-16 16:42N 49°02' W 004°51'412.3
2018-Mar-16 16:23N 48°60' W 004°57'512.3
2018-Mar-16 16:01N 48°58' W 005°03'612.3
2018-Mar-16 15:31N 48°55' W 005°11'612.2
2018-Mar-16 15:01N 48°51' W 005°19'612.2
2018-Mar-16 14:30N 48°48' W 005°27'612.2
2018-Mar-16 14:00N 48°45' W 005°35'611.9
2018-Mar-16 13:30N 48°40' W 005°39'711.7
2018-Mar-16 12:54N 48°34' W 005°44'511.3
2018-Mar-16 12:25N 48°29' W 005°48'610.9
2018-Mar-16 11:50N 48°23' W 005°52'410.7
2018-Mar-16 11:29N 48°19' W 005°54'610.3
2018-Mar-16 10:54N 48°14' W 005°58'510.0
2018-Mar-16 10:22N 48°09' W 006°01'  
Track history (hours):
 
Tides and Currents Weather Stations Pressure Air Temp Water Temp Dewpoint Dewpoint Depression Visibility Wind Speed Wind Dir Waves Ship Positions

Sbi Flamenco

Last reported at 2018-Mar-23 22:29 UTC. Time now 2018-Apr-19 11:47 UTC.
Position N 49°43' W 004°08'.
Warning: this ship's position is 26 days out of date.

Length 229 m; draft 7.8 m.

Type: Cargo ship. MMSI: 538006022.

Date/timePositionNaut miles runAvg speedWind from/ knotsBaromVisibWave heightAir tempDewpointWater temp
2018-Mar-23 22:29N 49°43' W 004°08'12 9.7
2018-Mar-23 21:15N 49°47' W 003°50'2 9.8
2018-Mar-23 21:00N 49°47' W 003°47'5 9.7
2018-Mar-23 20:30N 49°48' W 003°39'710.4
2018-Mar-23 19:49N 49°49' W 003°28'310.8
2018-Mar-23 19:30N 49°49' W 003°23'611.3
2018-Mar-23 19:00N 49°51' W 003°15'712.3
2018-Mar-23 18:28N 49°55' W 003°06'612.7
2018-Mar-23 18:00N 49°57' W 002°58'713.2
2018-Mar-23 17:30N 49°60' W 002°48'713.4
2018-Mar-23 16:59N 50°02' W 002°38'813.2
2018-Mar-23 16:21N 50°04' W 002°25'1312.5
2018-Mar-23 15:20N 50°08' W 002°06'411.6
2018-Mar-23 15:00N 50°09' W 002°01'510.7
2018-Mar-23 14:30N 50°10' W 001°53'5 9.6
2018-Mar-23 14:01N 50°11' W 001°45'5 9.1
2018-Mar-23 13:30N 50°13' W 001°38'4 8.5
2018-Mar-23 13:00N 50°14' W 001°32'4 7.7
2018-Mar-23 12:30N 50°15' W 001°26'4 7.3
2018-Mar-23 12:00N 50°16' W 001°21'4 7.1
2018-Mar-23 11:31N 50°16' W 001°15'9 7.7
2018-Mar-23 10:18N 50°19' W 001°01'3 8.9
2018-Mar-23 10:00N 50°20' W 000°57'5 9.6
2018-Mar-23 09:30N 50°21' W 000°50'810.5
2018-Mar-23 08:43N 50°23' W 000°38'2111.3
2018-Mar-23 06:52N 50°29' W 000°06'411.7
2018-Mar-23 06:30N 50°30' E 000°00'611.6
2018-Mar-23 06:00N 50°32' E 000°09'611.5
2018-Mar-23 05:30N 50°33' E 000°18'611.4
2018-Mar-23 05:00N 50°35' E 000°26'611.1
2018-Mar-23 04:30N 50°36' E 000°35'510.8
2018-Mar-23 04:00N 50°39' E 000°42'510.6
2018-Mar-23 03:30N 50°42' E 000°49'510.2
2018-Mar-23 03:00N 50°45' E 000°56'510.0
2018-Mar-23 02:30N 50°48' E 001°03'5 9.8
2018-Mar-23 02:00N 50°50' E 001°09'6 9.8
2018-Mar-23 01:23N 50°54' E 001°17'410.6
2018-Mar-23 01:00N 50°57' E 001°21'611.6
2018-Mar-23 00:30N 51°02' E 001°27'713.2
2018-Mar-23 00:00N 51°06' E 001°34'714.2
2018-Mar-22 23:30N 51°11' E 001°42'714.5
2018-Mar-22 23:00N 51°17' E 001°49'714.1
2018-Mar-22 22:31N 51°24' E 001°53'713.1
2018-Mar-22 22:00N 51°29' E 001°60'612.7
2018-Mar-22 21:30N 51°34' E 002°07'612.2
2018-Mar-22 21:00N 51°38' E 002°13'611.9
2018-Mar-22 20:30N 51°42' E 002°20'611.5
2018-Mar-22 19:57N 51°47' E 002°27'11111.7
2018-Mar-22 10:24N 53°12' E 004°26'2010.9
2018-Mar-22 08:35N 53°29' E 004°42'110.3
2018-Mar-22 08:27N 53°30' E 004°44'710.2
2018-Mar-22 07:47N 53°32' E 004°55'310.2
2018-Mar-22 07:27N 53°34' E 005°00'510.5
2018-Mar-22 06:56N 53°35' E 005°09'611.4
2018-Mar-22 06:22N 53°37' E 005°19'8610.8
2018-Mar-21 22:25N 54°01' E 007°39'5 9.6
2018-Mar-21 21:56N 54°01' E 007°47'510.3
2018-Mar-21 21:29N 54°01' E 007°55'610.7
2018-Mar-21 20:57N 54°01' E 008°05'4 9.7
2018-Mar-21 20:30N 54°01' E 008°12'511.0
2018-Mar-21 20:00N 53°60' E 008°21'815.4
2018-Mar-21 19:30N 53°58' E 008°34'815.6
2018-Mar-21 19:00N 53°52' E 008°43'612.0
2018-Mar-21 18:31N 53°50' E 008°53'714.6
2018-Mar-21 18:00N 53°52' E 009°05'510.2
2018-Mar-21 17:30N 53°53' E 009°13'611.7
2018-Mar-21 17:00N 53°50' E 009°22'611.1
2018-Mar-21 16:30N 53°45' E 009°25'5 9.8
2018-Mar-21 16:00N 53°41' E 009°30'4 8.9
2018-Mar-21 15:30N 53°37' E 009°34'5 9.7
2018-Mar-21 15:00N 53°34' E 009°41'4 8.1
2018-Mar-21 14:30N 53°33' E 009°47'3 6.9
2018-Mar-21 14:00N 53°33' E 009°53'2 4.6
2018-Mar-21 13:30N 53°32' E 009°56'1 1.1
2018-Mar-21 12:59N 53°31' E 009°56'0 0.0
2018-Mar-21 12:30N 53°31' E 009°56'0 0.0
2018-Mar-21 11:59N 53°31' E 009°56'0 0.0
2018-Mar-21 11:30N 53°31' E 009°56'0 0.0
2018-Mar-21 10:59N 53°31' E 009°56'0 0.0
2018-Mar-21 10:29N 53°31' E 009°56'0 0.0
2018-Mar-21 09:59N 53°31' E 009°56'0 0.0
2018-Mar-21 09:29N 53°31' E 009°56'0 0.0
2018-Mar-21 08:59N 53°31' E 009°56'0 0.0
2018-Mar-21 08:29N 53°31' E 009°56'0 0.0
2018-Mar-21 07:59N 53°31' E 009°56'0 0.0
2018-Mar-21 07:30N 53°31' E 009°56'0 0.0
2018-Mar-21 07:00N 53°31' E 009°56'0 0.0
2018-Mar-21 06:29N 53°31' E 009°56'0 0.0
2018-Mar-21 05:59N 53°31' E 009°56'0 0.0
2018-Mar-21 05:30N 53°31' E 009°56'0 0.0
2018-Mar-21 04:59N 53°31' E 009°56'0 0.0
2018-Mar-21 04:30N 53°31' E 009°56'0 0.0
2018-Mar-21 03:59N 53°31' E 009°56'0 0.0
2018-Mar-21 03:29N 53°31' E 009°56'0 0.0
2018-Mar-21 02:59N 53°31' E 009°56'0 0.0
2018-Mar-21 02:29N 53°31' E 009°56'0 0.0
2018-Mar-21 01:59N 53°31' E 009°56'0 0.0
2018-Mar-21 01:29N 53°31' E 009°56'0 0.0
2018-Mar-21 01:00N 53°31' E 009°56'0 0.0
2018-Mar-21 00:29N 53°31' E 009°56'0 0.0
2018-Mar-20 23:59N 53°31' E 009°56'0 0.0
2018-Mar-20 23:29N 53°31' E 009°56'0 0.0
2018-Mar-20 22:59N 53°31' E 009°56'0 0.0
2018-Mar-20 22:29N 53°31' E 009°56'0 0.0
2018-Mar-20 21:59N 53°31' E 009°56'0 0.0
2018-Mar-20 21:29N 53°31' E 009°56'0 0.0
2018-Mar-20 20:59N 53°31' E 009°56'0 0.0
2018-Mar-20 20:29N 53°31' E 009°56'0 0.0
2018-Mar-20 19:59N 53°31' E 009°56'0 0.0
2018-Mar-20 19:29N 53°31' E 009°56'0 0.0
2018-Mar-20 18:59N 53°31' E 009°56'0 0.0
2018-Mar-20 18:29N 53°31' E 009°56'0 0.0
2018-Mar-20 17:59N 53°31' E 009°56'0 0.0
2018-Mar-20 17:29N 53°31' E 009°56'0 0.0
2018-Mar-20 16:59N 53°31' E 009°56'0 0.0
2018-Mar-20 16:29N 53°31' E 009°56'0 0.0
2018-Mar-20 15:59N 53°31' E 009°56'0 0.0
2018-Mar-20 15:29N 53°31' E 009°56'0 0.0
2018-Mar-20 14:59N 53°31' E 009°56'0 0.0
2018-Mar-20 14:29N 53°31' E 009°56'0 0.0
2018-Mar-20 13:59N 53°31' E 009°56'0 0.0
2018-Mar-20 13:29N 53°31' E 009°56'0 0.0
2018-Mar-20 12:59N 53°31' E 009°56'0 0.0
2018-Mar-20 12:29N 53°31' E 009°56'0 0.0
2018-Mar-20 11:59N 53°31' E 009°56'0 0.0
2018-Mar-20 11:29N 53°31' E 009°56'0 0.0
2018-Mar-20 10:59N 53°31' E 009°56'0 0.0
2018-Mar-20 10:29N 53°31' E 009°56'0 0.0
2018-Mar-20 09:59N 53°31' E 009°56'0 0.0
2018-Mar-20 09:29N 53°31' E 009°56'0 0.0
2018-Mar-20 08:59N 53°31' E 009°56'0 0.0
2018-Mar-20 08:29N 53°31' E 009°56'0 0.0
2018-Mar-20 07:59N 53°31' E 009°56'0 0.0
2018-Mar-20 07:29N 53°31' E 009°56'0 0.0
2018-Mar-20 06:59N 53°31' E 009°56'0 0.0
2018-Mar-20 06:29N 53°31' E 009°56'0 0.0
2018-Mar-20 05:59N 53°31' E 009°56'0 0.0
2018-Mar-20 05:29N 53°31' E 009°56'0 0.0
2018-Mar-20 04:59N 53°31' E 009°56'0 0.0
2018-Mar-20 04:29N 53°31' E 009°56'0 0.0
2018-Mar-20 03:59N 53°31' E 009°56'0 0.0
2018-Mar-20 03:29N 53°31' E 009°56'0 0.0
2018-Mar-20 02:59N 53°31' E 009°56'0 0.0
2018-Mar-20 02:29N 53°31' E 009°56'0 0.0
2018-Mar-20 01:59N 53°31' E 009°56'0 0.0
2018-Mar-20 01:29N 53°31' E 009°56'0 0.0
2018-Mar-20 00:59N 53°31' E 009°56'0 0.0
2018-Mar-20 00:29N 53°31' E 009°56'0 0.0
2018-Mar-19 23:59N 53°31' E 009°56'0 0.0
2018-Mar-19 23:29N 53°31' E 009°56'0 0.0
2018-Mar-19 22:59N 53°31' E 009°56'0 0.0
2018-Mar-19 22:29N 53°31' E 009°56'0 0.0
2018-Mar-19 21:59N 53°31' E 009°56'0 0.0
2018-Mar-19 21:29N 53°31' E 009°56'0 0.0
2018-Mar-19 20:59N 53°31' E 009°56'0 0.0
2018-Mar-19 20:29N 53°31' E 009°56'0 0.0
2018-Mar-19 19:59N 53°31' E 009°56'0 0.0
2018-Mar-19 19:29N 53°31' E 009°56'0 0.0
2018-Mar-19 18:59N 53°31' E 009°56'0 0.0
2018-Mar-19 18:29N 53°31' E 009°56'0 0.0
2018-Mar-19 17:59N 53°31' E 009°56'0 0.0
2018-Mar-19 17:29N 53°31' E 009°56'0 0.0
2018-Mar-19 16:59N 53°31' E 009°56'0 0.4
2018-Mar-19 16:30N 53°31' E 009°56'2 4.6
2018-Mar-19 16:00N 53°32' E 009°53'4 7.8
2018-Mar-19 15:30N 53°34' E 009°47'510.4
2018-Mar-19 15:00N 53°35' E 009°38'611.3
2018-Mar-19 14:30N 53°39' E 009°31'611.8
2018-Mar-19 14:00N 53°44' E 009°27'612.4
2018-Mar-19 13:30N 53°49' E 009°22'612.9
2018-Mar-19 13:00N 53°53' E 009°13'5 9.7
2018-Mar-19 12:30N 53°52' E 009°04'612.4
2018-Mar-19 12:00N 53°51' E 008°54'4 9.0
2018-Mar-19 11:31N 53°51' E 008°47'5 9.1
2018-Mar-19 11:00N 53°54' E 008°42'712.9
2018-Mar-19 10:29N 53°58' E 008°33'613.1
2018-Mar-19 10:00N 53°59' E 008°22'510.0
2018-Mar-19 09:30N 53°60' E 008°13'8 8.8
2018-Mar-19 08:33N 53°60' E 007°59'1 4.1
2018-Mar-19 08:23N 53°60' E 007°58'1 0.8
2018-Mar-19 07:39N 53°60' E 007°57'0 1.8
2018-Mar-19 07:28N 53°59' E 007°57'4 7.1
2018-Mar-19 06:59N 53°59' E 007°51'94 9.4
2018-Mar-18 20:59N 53°32' E 005°19'4 9.2
2018-Mar-18 20:30N 53°30' E 005°11'5 8.7
2018-Mar-18 19:59N 53°30' E 005°04'5 9.0
2018-Mar-18 19:27N 53°28' E 004°56'5 9.2
2018-Mar-18 18:56N 53°26' E 004°49'19 9.8
2018-Mar-18 16:59N 53°11' E 004°30'510.7
2018-Mar-18 16:31N 53°06' E 004°26'510.8
2018-Mar-18 16:01N 53°01' E 004°22'510.6
2018-Mar-18 15:31N 52°57' E 004°18'510.3
2018-Mar-18 15:01N 52°52' E 004°14'610.1
2018-Mar-18 14:26N 52°47' E 004°09'4 9.6
2018-Mar-18 13:59N 52°44' E 004°05'5 9.2
2018-Mar-18 13:28N 52°40' E 004°00'4 8.7
2018-Mar-18 13:00N 52°37' E 003°55'4 8.6
2018-Mar-18 12:30N 52°34' E 003°50'4 8.2
2018-Mar-18 11:59N 52°31' E 003°46'4 7.9
2018-Mar-18 11:30N 52°28' E 003°42'4 7.5
2018-Mar-18 11:00N 52°25' E 003°38'4 7.0
2018-Mar-18 10:27N 52°23' E 003°33'48 7.9
2018-Mar-18 04:21N 51°48' E 002°37'4 9.8
2018-Mar-18 04:00N 51°46' E 002°33'510.0
2018-Mar-18 03:30N 51°42' E 002°28'510.2
2018-Mar-18 03:00N 51°38' E 002°23'510.1
2018-Mar-18 02:28N 51°34' E 002°18'510.2
2018-Mar-18 01:59N 51°30' E 002°13'510.2
2018-Mar-18 01:31N 51°26' E 002°08'510.1
2018-Mar-18 01:01N 51°23' E 002°02'510.0
2018-Mar-18 00:31N 51°19' E 001°57'510.3
2018-Mar-18 00:00N 51°15' E 001°52'510.1
2018-Mar-17 23:31N 51°11' E 001°46'5 9.9
2018-Mar-17 23:01N 51°07' E 001°42'5 9.4
2018-Mar-17 22:31N 51°03' E 001°38'6 9.0
2018-Mar-17 21:47N 50°58' E 001°32'2 8.5
2018-Mar-17 21:31N 50°56' E 001°30'4 8.0
2018-Mar-17 21:00N 50°52' E 001°27'4 7.8
2018-Mar-17 20:29N 50°48' E 001°25'4 7.6
2018-Mar-17 19:59N 50°45' E 001°23'4 7.7
2018-Mar-17 19:26N 50°41' E 001°19'49 7.9
2018-Mar-17 13:13N 50°21' E 000°09'2 7.6
2018-Mar-17 13:00N 50°20' E 000°07'4 7.8
2018-Mar-17 12:30N 50°19' E 000°01'4 7.8
2018-Mar-17 12:00N 50°18' W 000°05'4 8.4
2018-Mar-17 11:30N 50°17' W 000°11'4 8.9
2018-Mar-17 11:00N 50°16' W 000°18'5 9.5
2018-Mar-17 10:30N 50°15' W 000°25'510.2
2018-Mar-17 10:00N 50°13' W 000°33'1411.5
2018-Mar-17 08:46N 50°10' W 000°54'312.2
2018-Mar-17 08:30N 50°09' W 000°59'612.6
2018-Mar-17 08:00N 50°07' W 001°09'612.8
2018-Mar-17 07:30N 50°05' W 001°18'612.8
2018-Mar-17 07:00N 50°04' W 001°28'612.5
2018-Mar-17 06:31N 50°02' W 001°37'612.2
2018-Mar-17 06:01N 50°00' W 001°46'611.9
2018-Mar-17 05:30N 49°59' W 001°55'611.4
2018-Mar-17 05:00N 49°57' W 002°04'610.8
2018-Mar-17 04:29N 49°55' W 002°12'41 9.1
2018-Mar-17 00:02N 49°42' W 003°12'0 9.1
2018-Mar-17 00:00N 49°42' W 003°12'5 9.3
2018-Mar-16 23:30N 49°40' W 003°18'6410.4
2018-Mar-16 17:20N 49°06' W 004°42'811.9
2018-Mar-16 16:42N 49°02' W 004°51'412.3
2018-Mar-16 16:23N 48°60' W 004°57'512.3
2018-Mar-16 16:01N 48°58' W 005°03'612.3
2018-Mar-16 15:31N 48°55' W 005°11'612.2
2018-Mar-16 15:01N 48°51' W 005°19'612.2
2018-Mar-16 14:30N 48°48' W 005°27'612.2
2018-Mar-16 14:00N 48°45' W 005°35'611.9
2018-Mar-16 13:30N 48°40' W 005°39'711.7
2018-Mar-16 12:54N 48°34' W 005°44'511.3
2018-Mar-16 12:25N 48°29' W 005°48'610.9
2018-Mar-16 11:50N 48°23' W 005°52'410.7
2018-Mar-16 11:29N 48°19' W 005°54'610.3
2018-Mar-16 10:54N 48°14' W 005°58'510.0
2018-Mar-16 10:22N 48°09' W 006°01'  

Dump ship's entire track history